Accueil
METAR-TAF:

METAR-TAF

Aéroports :

Base aérienne 709 Cognac-Châteaubernard

Cognac, France

latitude: 45-40N, longitude: 000-19W, altitude: 30 m

Observation

Le bulletin a été fait il y a 11 minutes, à 05:00 UTC
Vent 6 kt de ouest
Température 11°C
Humidité 82%
Pression 1016 hPa
Visibilité 10 km ou plus
Quelques nuages à une hauteur de 3800 ft

METAR: LFBG 280500Z AUTO 28006KT 9999 FEW038 11/08 Q1016 NOSIG

Heure: 07:11 (05:11 UTC)

Prévision

Le bulletin a été fait il y a 3 heures et 11 minutes, à 02:00 UTC
Prévision valable du 28 à 03 UTC au 29 à 03 UTC
Vent 8 kt de ouest/nord-ouest
Visibilité 10 km ou plus
pas de nuages en-dessous de 1500 mètres et pas de cumulonimbus.
Temporairement
du 28 à 12 UTC au 28 à 17 UTC
Vent 10 kt de ouest avec des rafales jusqu'à 20 kt

TAF: LFBG 280200Z 2803/2903 30008KT CAVOK TEMPO 2812/2817 28010G20KT

Observations et prévisions météorologiques de plus de 4000 aéroports (messages METAR et TAF).

Les stations disponibles sont représentées par des disques jaunes et rouges sur la carte.

Passer la souris dessus pour voir le nom de la station.

Cliquer dessus pour voir les observations et prévisions météorologiques.

Pour changer de carte: cliquez sur les boutons verts avec une croix noire pour zoomer, sur le bouton vert avec un tiret pour effectuer un zoom arrière, ou sur les flèches vertes pour les cartes adjacentes.


METAR-TAF: